Time;durP1;ratioP1;P1;durP2;ratioP2;P2;SDS_P1;SDS_P2;PMS_P1;PMS_P2;Temp;Humidity;BMP_temperature;BMP_pressure;BME280_temperature;BME280_humidity;BME280_pressure;Samples;Min_cycle;Max_cycle;Signal;HPM_P1;HPM_P2
2023/09/22 00:00:47;;;;;;;3.40;1.60;;;;;;;;;;5071992;28;20440;-47
2023/09/22 00:03:14;;;;;;;2.40;1.40;;;;;;;;;;5072349;28;20644;-49
2023/09/22 00:05:40;;;;;;;2.20;1.50;;;;;;;;;;5072359;28;20177;-51
2023/09/22 00:08:07;;;;;;;2.27;1.40;;;;;;;;;;5073534;28;20299;-50
2023/09/22 00:10:34;;;;;;;2.83;1.30;;;;;;;;;;5073844;28;20169;-47
2023/09/22 00:13:00;;;;;;;3.57;1.73;;;;;;;;;;5074706;28;20293;-53
2023/09/22 00:15:29;;;;;;;3.37;1.70;;;;;;;;;;5073019;28;20549;-50
2023/09/22 00:17:55;;;;;;;2.23;1.67;;;;;;;;;;5071045;28;20176;-49
2023/09/22 00:20:22;;;;;;;3.43;1.70;;;;;;;;;;5069814;28;20176;-48
2023/09/22 00:22:48;;;;;;;3.03;2.00;;;;;;;;;;5071775;28;20173;-50
2023/09/22 00:25:15;;;;;;;2.87;1.80;;;;;;;;;;5072152;28;20215;-46
2023/09/22 00:27:41;;;;;;;3.40;2.27;;;;;;;;;;5070956;28;20218;-49
2023/09/22 00:30:11;;;;;;;3.63;2.27;;;;;;;;;;5072604;28;20169;-50
2023/09/22 00:32:38;;;;;;;1.97;1.50;;;;;;;;;;5073372;28;20225;-47
2023/09/22 00:35:06;;;;;;;3.07;2.00;;;;;;;;;;5073687;28;20379;-49
2023/09/22 00:37:33;;;;;;;4.03;2.40;;;;;;;;;;5073277;28;20444;-51
2023/09/22 00:39:59;;;;;;;2.23;2.03;;;;;;;;;;5073501;28;20275;-50
2023/09/22 00:42:25;;;;;;;2.83;2.00;;;;;;;;;;5072888;28;20169;-52
2023/09/22 00:44:51;;;;;;;7.63;6.13;;;;;;;;;;5071930;28;20177;-49
2023/09/22 00:47:18;;;;;;;14.33;12.13;;;;;;;;;;5071374;28;20176;-48
2023/09/22 00:49:45;;;;;;;23.40;18.60;;;;;;;;;;5071986;28;20173;-49
2023/09/22 00:52:14;;;;;;;20.80;15.83;;;;;;;;;;5072545;28;20179;-49
2023/09/22 00:54:40;;;;;;;31.47;23.33;;;;;;;;;;5072987;28;20203;-50
2023/09/22 00:57:06;;;;;;;42.40;33.17;;;;;;;;;;5071702;28;20230;-52
2023/09/22 00:59:33;;;;;;;53.73;44.80;;;;;;;;;;5073611;28;20184;-52
2023/09/22 01:01:59;;;;;;;77.87;64.53;;;;;;;;;;5071040;28;20177;-47
2023/09/22 01:04:26;;;;;;;71.43;57.87;;;;;;;;;;5069656;28;20216;-51
2023/09/22 01:06:52;;;;;;;118.03;95.10;;;;;;;;;;5070122;28;20204;-50
2023/09/22 01:09:18;;;;;;;95.57;76.47;;;;;;;;;;5068989;28;20524;-50
2023/09/22 01:11:45;;;;;;;118.50;93.83;;;;;;;;;;5067990;28;20300;-52
2023/09/22 01:14:11;;;;;;;67.33;55.03;;;;;;;;;;5068949;28;20541;-54
2023/09/22 01:16:37;;;;;;;51.27;43.17;;;;;;;;;;5066947;28;20169;-48
2023/09/22 01:19:12;;;;;;;39.33;32.77;;;;;;;;;;5067506;28;20211;-48
2023/09/22 01:21:38;;;;;;;54.47;41.90;;;;;;;;;;5068416;28;20549;-50
2023/09/22 01:24:04;;;;;;;29.87;24.80;;;;;;;;;;5069591;28;20173;-54
2023/09/22 01:26:31;;;;;;;17.37;13.83;;;;;;;;;;5069036;28;20203;-47
2023/09/22 01:28:58;;;;;;;27.87;22.03;;;;;;;;;;5068195;28;20304;-51
2023/09/22 01:31:24;;;;;;;29.27;22.53;;;;;;;;;;5069271;28;20172;-50
2023/09/22 01:33:50;;;;;;;60.77;43.17;;;;;;;;;;5070249;28;20232;-49
2023/09/22 01:36:16;;;;;;;63.33;41.10;;;;;;;;;;5072104;28;20185;-50
2023/09/22 01:38:42;;;;;;;43.43;28.50;;;;;;;;;;5071646;28;20184;-48
2023/09/22 01:41:08;;;;;;;43.20;30.30;;;;;;;;;;5070312;28;20207;-50
2023/09/22 01:43:35;;;;;;;33.37;18.87;;;;;;;;;;5072987;28;20533;-50
2023/09/22 01:46:01;;;;;;;29.17;18.17;;;;;;;;;;5071408;28;20184;-50
2023/09/22 01:48:27;;;;;;;28.53;16.03;;;;;;;;;;5071737;28;20270;-48
2023/09/22 01:50:53;;;;;;;28.17;16.03;;;;;;;;;;5070560;28;20208;-47
2023/09/22 01:53:19;;;;;;;23.73;14.17;;;;;;;;;;5070387;28;20177;-48
2023/09/22 01:55:46;;;;;;;39.97;17.67;;;;;;;;;;5072745;28;20169;-48
2023/09/22 01:58:12;;;;;;;25.43;13.00;;;;;;;;;;5072224;28;20301;-51
2023/09/22 02:00:39;;;;;;;16.50;10.20;;;;;;;;;;5072596;28;20184;-52
2023/09/22 02:03:05;;;;;;;17.80;10.03;;;;;;;;;;5072144;28;20525;-48
2023/09/22 02:05:32;;;;;;;9.27;6.80;;;;;;;;;;5072919;28;20271;-53
2023/09/22 02:07:59;;;;;;;6.33;4.30;;;;;;;;;;5071009;28;20295;-49
2023/09/22 02:10:25;;;;;;;4.80;2.70;;;;;;;;;;5070723;28;20188;-49
2023/09/22 02:12:51;;;;;;;3.57;2.03;;;;;;;;;;5067753;28;20173;-50
2023/09/22 02:15:17;;;;;;;3.10;1.90;;;;;;;;;;5068046;28;20179;-50
2023/09/22 02:17:44;;;;;;;2.03;1.83;;;;;;;;;;5068314;28;20168;-49
2023/09/22 02:20:24;;;;;;;1.50;1.40;;;;;;;;;;5067428;28;20180;-49
2023/09/22 02:22:50;;;;;;;2.53;1.50;;;;;;;;;;5067501;28;20175;-51
2023/09/22 02:25:17;;;;;;;1.87;1.40;;;;;;;;;;5068462;28;20312;-51
2023/09/22 02:27:44;;;;;;;2.40;1.50;;;;;;;;;;5071250;28;20638;-51
2023/09/22 02:30:10;;;;;;;1.40;1.30;;;;;;;;;;5070193;28;20234;-50
2023/09/22 02:32:37;;;;;;;1.47;1.00;;;;;;;;;;5074635;28;20235;-50
2023/09/22 02:35:03;;;;;;;1.40;1.20;;;;;;;;;;5074882;28;20278;-48
2023/09/22 02:37:29;;;;;;;1.23;1.13;;;;;;;;;;5094387;28;20288;-49
2023/09/22 02:39:55;;;;;;;1.53;1.30;;;;;;;;;;5078940;28;20163;-48
2023/09/22 02:42:21;;;;;;;1.60;1.30;;;;;;;;;;5096201;28;20164;-54
2023/09/22 02:44:47;;;;;;;1.53;1.13;;;;;;;;;;5078638;28;20267;-49
2023/09/22 02:47:14;;;;;;;1.97;1.40;;;;;;;;;;5077700;28;20211;-53
2023/09/22 02:49:40;;;;;;;5.27;1.23;;;;;;;;;;5077465;28;20187;-53
2023/09/22 02:52:06;;;;;;;1.33;1.13;;;;;;;;;;5077847;28;20172;-51
2023/09/22 02:54:32;;;;;;;1.67;1.23;;;;;;;;;;5078250;28;20524;-53
2023/09/22 02:56:58;;;;;;;1.03;0.90;;;;;;;;;;5078075;28;20267;-49
2023/09/22 02:59:24;;;;;;;2.70;0.70;;;;;;;;;;5095905;28;20274;-49
2023/09/22 03:01:50;;;;;;;1.63;1.20;;;;;;;;;;5095191;28;20572;-50
2023/09/22 03:04:17;;;;;;;0.87;0.83;;;;;;;;;;5076839;28;20278;-49
2023/09/22 03:06:42;;;;;;;1.50;1.07;;;;;;;;;;5077212;28;20173;-49
2023/09/22 03:09:09;;;;;;;1.53;1.00;;;;;;;;;;5094026;28;20207;-47
2023/09/22 03:11:35;;;;;;;0.87;0.87;;;;;;;;;;5093990;28;20385;-50
2023/09/22 03:14:01;;;;;;;1.03;1.00;;;;;;;;;;5077867;28;20180;-49
2023/09/22 03:16:27;;;;;;;1.50;1.13;;;;;;;;;;5094575;28;20321;-53
2023/09/22 03:18:53;;;;;;;1.70;1.10;;;;;;;;;;5077763;28;20180;-48
2023/09/22 03:21:22;;;;;;;1.10;0.87;;;;;;;;;;5078800;28;20497;-48
2023/09/22 03:23:48;;;;;;;1.10;0.80;;;;;;;;;;5077949;28;20560;-54
2023/09/22 03:26:15;;;;;;;0.80;0.80;;;;;;;;;;5078228;28;20207;-52
2023/09/22 03:28:42;;;;;;;1.00;0.90;;;;;;;;;;5077449;28;20299;-51
2023/09/22 03:31:08;;;;;;;3.53;1.10;;;;;;;;;;5077305;28;20564;-51
2023/09/22 03:33:35;;;;;;;1.77;1.40;;;;;;;;;;5092744;28;20223;-49
2023/09/22 03:36:01;;;;;;;2.20;1.60;;;;;;;;;;5092634;28;20563;-51
2023/09/22 03:38:28;;;;;;;1.40;1.30;;;;;;;;;;5075983;28;20175;-50
2023/09/22 03:41:00;;;;;;;2.23;1.50;;;;;;;;;;5095488;28;20168;-49
2023/09/22 03:43:26;;;;;;;2.57;1.20;;;;;;;;;;5077305;28;20187;-49
2023/09/22 03:45:53;;;;;;;1.53;1.23;;;;;;;;;;5077106;28;20305;-50
2023/09/22 03:48:20;;;;;;;2.10;1.43;;;;;;;;;;5097295;28;20212;-49
2023/09/22 03:50:46;;;;;;;1.60;1.50;;;;;;;;;;5075623;28;20271;-53
2023/09/22 03:53:13;;;;;;;2.07;1.50;;;;;;;;;;5077016;28;20274;-49
2023/09/22 03:55:39;;;;;;;1.63;1.30;;;;;;;;;;5094654;28;20423;-53
2023/09/22 03:58:06;;;;;;;1.47;1.37;;;;;;;;;;5075599;28;20391;-47
2023/09/22 04:00:32;;;;;;;3.17;1.90;;;;;;;;;;5075125;28;20172;-51
2023/09/22 04:02:59;;;;;;;1.73;1.63;;;;;;;;;;5093125;28;20168;-51
2023/09/22 04:05:26;;;;;;;2.60;1.83;;;;;;;;;;5092547;28;20435;-51
2023/09/22 04:07:54;;;;;;;2.57;2.30;;;;;;;;;;5073069;28;20211;-50
2023/09/22 04:10:20;;;;;;;3.23;2.10;;;;;;;;;;5075749;28;20179;-49
2023/09/22 04:12:46;;;;;;;3.00;1.80;;;;;;;;;;5093201;28;20621;-49
2023/09/22 04:15:12;;;;;;;2.40;2.20;;;;;;;;;;5073104;28;20168;-51
2023/09/22 04:17:38;;;;;;;2.63;2.43;;;;;;;;;;5073253;28;20444;-47
2023/09/22 04:20:08;;;;;;;4.33;3.77;;;;;;;;;;5073612;28;20271;-49
2023/09/22 04:22:37;;;;;;;4.37;3.97;;;;;;;;;;5072457;28;20171;-47
2023/09/22 04:25:08;;;;;;;5.33;4.83;;;;;;;;;;5090722;28;20164;-49
2023/09/22 04:27:40;;;;;;;9.90;5.20;;;;;;;;;;5071589;28;20168;-51
2023/09/22 04:30:07;;;;;;;5.40;4.87;;;;;;;;;;5090386;28;20223;-51
2023/09/22 04:32:35;;;;;;;5.37;4.87;;;;;;;;;;5072831;28;20595;-50
2023/09/22 04:35:01;;;;;;;5.30;4.60;;;;;;;;;;5073686;28;20172;-48
2023/09/22 04:37:27;;;;;;;5.50;5.00;;;;;;;;;;5089829;28;20164;-53
2023/09/22 04:39:54;;;;;;;6.77;4.50;;;;;;;;;;5091207;28;20467;-51
2023/09/22 04:42:20;;;;;;;8.67;5.40;;;;;;;;;;5073705;28;20562;-48
2023/09/22 04:44:46;;;;;;;4.70;4.30;;;;;;;;;;5078354;28;20172;-53
2023/09/22 04:47:12;;;;;;;6.13;5.53;;;;;;;;;;5095671;28;20279;-50
2023/09/22 04:49:38;;;;;;;8.20;6.20;;;;;;;;;;5074941;28;20564;-50
2023/09/22 04:52:04;;;;;;;6.40;5.80;;;;;;;;;;5072439;28;20190;-55
2023/09/22 04:54:30;;;;;;;7.30;5.77;;;;;;;;;;5072849;28;20225;-52
2023/09/22 04:56:56;;;;;;;5.80;5.30;;;;;;;;;;5072551;28;20172;-53
2023/09/22 04:59:23;;;;;;;9.23;6.33;;;;;;;;;;5071905;28;20183;-51
2023/09/22 05:01:49;;;;;;;6.97;5.87;;;;;;;;;;5072145;28;20176;-52
2023/09/22 05:04:16;;;;;;;6.93;6.23;;;;;;;;;;5088984;28;20188;-49
2023/09/22 05:06:45;;;;;;;6.63;6.00;;;;;;;;;;5088961;28;20336;-51
2023/09/22 05:09:11;;;;;;;6.70;6.07;;;;;;;;;;5071924;28;20196;-50
2023/09/22 05:11:38;;;;;;;7.37;6.53;;;;;;;;;;5071623;28;20194;-52
2023/09/22 05:14:06;;;;;;;7.33;6.63;;;;;;;;;;5071573;28;20288;-49
2023/09/22 05:16:32;;;;;;;10.37;6.70;;;;;;;;;;5073168;28;20195;-52
2023/09/22 05:18:59;;;;;;;8.07;6.67;;;;;;;;;;5071518;28;20218;-53
2023/09/22 05:21:25;;;;;;;7.90;7.07;;;;;;;;;;5070714;28;20198;-51
2023/09/22 05:23:52;;;;;;;8.70;7.80;;;;;;;;;;5069840;28;20682;-49
2023/09/22 05:26:18;;;;;;;7.03;6.33;;;;;;;;;;5087718;28;20180;-53
2023/09/22 05:28:45;;;;;;;7.43;6.73;;;;;;;;;;5066980;28;20534;-50
2023/09/22 05:31:11;;;;;;;9.03;8.13;;;;;;;;;;5084689;28;20184;-51
2023/09/22 05:33:37;;;;;;;10.37;7.43;;;;;;;;;;5065247;28;20602;-52
2023/09/22 05:36:05;;;;;;;8.17;7.00;;;;;;;;;;5065312;28;20184;-52
2023/09/22 05:38:31;;;;;;;7.40;6.60;;;;;;;;;;5067659;28;20201;-50
2023/09/22 05:40:58;;;;;;;8.00;7.03;;;;;;;;;;5068745;28;20210;-53
2023/09/22 05:43:24;;;;;;;10.03;7.43;;;;;;;;;;5069889;28;20179;-53
2023/09/22 05:45:57;;;;;;;8.33;7.17;;;;;;;;;;5069595;28;20264;-49
2023/09/22 05:48:23;;;;;;;10.43;8.27;;;;;;;;;;5067442;28;20298;-55
2023/09/22 05:50:59;;;;;;;8.37;7.17;;;;;;;;;;5066414;28;20315;-55
2023/09/22 05:53:26;;;;;;;9.73;8.60;;;;;;;;;;5086234;28;20586;-51
2023/09/22 05:56:09;;;;;;;10.77;7.37;;;;;;;;;;5086294;28;20262;-50
2023/09/22 05:58:35;;;;;;;8.33;7.43;;;;;;;;;;5085824;28;20209;-49
2023/09/22 06:01:08;;;;;;;8.73;7.13;;;;;;;;;;5066486;28;20204;-48
2023/09/22 06:03:38;;;;;;;11.90;8.10;;;;;;;;;;5066886;28;20180;-51
2023/09/22 06:06:11;;;;;;;9.73;7.60;;;;;;;;;;5064695;28;20253;-48
2023/09/22 06:08:38;;;;;;;9.70;7.23;;;;;;;;;;5064375;28;20208;-48
2023/09/22 06:11:04;;;;;;;10.60;6.83;;;;;;;;;;5065243;28;20167;-50
2023/09/22 06:13:31;;;;;;;8.40;7.50;;;;;;;;;;5083347;28;20164;-50
2023/09/22 06:15:57;;;;;;;7.30;6.60;;;;;;;;;;5065408;28;20268;-52
2023/09/22 06:18:24;;;;;;;7.73;6.73;;;;;;;;;;5066383;28;20241;-48
2023/09/22 06:20:53;;;;;;;10.37;6.90;;;;;;;;;;5085371;28;20168;-51
2023/09/22 06:23:19;;;;;;;7.43;6.37;;;;;;;;;;5066621;28;20176;-48
2023/09/22 06:25:45;;;;;;;8.83;6.43;;;;;;;;;;5065187;28;20249;-48
2023/09/22 06:28:14;;;;;;;8.63;6.37;;;;;;;;;;5084187;28;20390;-50
2023/09/22 06:30:41;;;;;;;8.33;7.47;;;;;;;;;;5083777;28;20214;-49
2023/09/22 06:33:07;;;;;;;10.97;6.20;;;;;;;;;;5064138;28;20680;-47
2023/09/22 06:35:34;;;;;;;7.83;6.37;;;;;;;;;;5082753;28;20453;-52
2023/09/22 06:38:00;;;;;;;8.90;6.43;;;;;;;;;;5065306;28;20225;-50
2023/09/22 06:40:26;;;;;;;7.03;6.33;;;;;;;;;;5066702;28;20172;-48
2023/09/22 06:42:53;;;;;;;11.60;5.87;;;;;;;;;;5065765;28;20168;-48
2023/09/22 06:45:19;;;;;;;9.10;6.80;;;;;;;;;;5066507;28;20263;-50
2023/09/22 06:47:45;;;;;;;11.50;6.10;;;;;;;;;;5067347;28;20429;-52
2023/09/22 06:50:11;;;;;;;9.07;6.00;;;;;;;;;;5065723;28;20327;-48
2023/09/22 06:52:38;;;;;;;6.87;6.20;;;;;;;;;;5068130;28;20200;-48
2023/09/22 06:55:08;;;;;;;6.33;5.73;;;;;;;;;;5067193;28;20555;-49
2023/09/22 06:57:36;;;;;;;6.17;5.50;;;;;;;;;;5086368;28;20160;-50
2023/09/22 07:00:05;;;;;;;9.83;6.93;;;;;;;;;;5084477;28;20168;-49
2023/09/22 07:02:32;;;;;;;6.70;5.93;;;;;;;;;;5066519;28;20406;-52
2023/09/22 07:04:58;;;;;;;7.83;5.30;;;;;;;;;;5065586;28;20176;-50
2023/09/22 07:07:23;;;;;;;6.43;5.40;;;;;;;;;;5064675;28;20203;-48
2023/09/22 07:09:50;;;;;;;6.10;4.97;;;;;;;;;;5064129;28;20196;-51
2023/09/22 07:12:15;;;;;;;6.93;5.20;;;;;;;;;;5081724;28;20169;-50
2023/09/22 07:14:41;;;;;;;6.63;5.37;;;;;;;;;;5063485;28;20179;-51
2023/09/22 07:17:08;;;;;;;6.80;5.83;;;;;;;;;;5082497;28;20238;-48
2023/09/22 07:19:38;;;;;;;5.93;4.93;;;;;;;;;;5062929;28;20493;-48
2023/09/22 07:22:04;;;;;;;6.87;5.40;;;;;;;;;;5063971;28;20184;-48
2023/09/22 07:24:30;;;;;;;4.97;4.47;;;;;;;;;;5066992;28;20168;-50
2023/09/22 07:26:56;;;;;;;6.37;5.57;;;;;;;;;;5086927;28;20524;-49
2023/09/22 07:29:22;;;;;;;5.20;4.23;;;;;;;;;;5070278;28;20214;-49
2023/09/22 07:31:48;;;;;;;5.47;4.97;;;;;;;;;;5068867;28;20165;-48
2023/09/22 07:34:14;;;;;;;6.83;4.70;;;;;;;;;;5069402;28;20223;-48
2023/09/22 07:36:40;;;;;;;5.90;5.30;;;;;;;;;;5086332;28;20233;-47
2023/09/22 07:39:05;;;;;;;6.33;4.80;;;;;;;;;;5069182;28;20333;-49
2023/09/22 07:41:32;;;;;;;7.43;5.10;;;;;;;;;;5086759;28;20422;-47
2023/09/22 07:43:58;;;;;;;5.10;4.60;;;;;;;;;;5068644;28;20179;-49
2023/09/22 07:46:24;;;;;;;5.50;4.77;;;;;;;;;;5085427;28;20164;-49
2023/09/22 07:48:51;;;;;;;7.63;5.13;;;;;;;;;;5066846;28;20378;-47
2023/09/22 07:51:18;;;;;;;7.07;4.83;;;;;;;;;;5069259;28;20341;-48
2023/09/22 07:53:45;;;;;;;5.80;5.20;;;;;;;;;;5068774;28;20174;-48
2023/09/22 07:56:12;;;;;;;5.43;4.70;;;;;;;;;;5070597;28;20373;-48
2023/09/22 07:58:41;;;;;;;7.17;5.00;;;;;;;;;;5070653;28;20179;-47
2023/09/22 08:01:12;;;;;;;6.43;4.60;;;;;;;;;;5072038;28;20180;-48
2023/09/22 08:03:38;;;;;;;5.27;4.50;;;;;;;;;;5071807;28;20221;-48
2023/09/22 08:06:05;;;;;;;5.27;4.43;;;;;;;;;;5073184;28;20211;-49
2023/09/22 08:08:33;;;;;;;4.03;3.63;;;;;;;;;;5071123;28;20652;-50
2023/09/22 08:10:59;;;;;;;5.13;4.63;;;;;;;;;;5071473;28;20171;-49
2023/09/22 08:13:25;;;;;;;4.87;4.37;;;;;;;;;;5076080;28;20536;-48
2023/09/22 08:15:51;;;;;;;5.80;4.60;;;;;;;;;;5076468;28;20179;-47
2023/09/22 08:18:17;;;;;;;4.37;3.97;;;;;;;;;;5089827;28;20184;-48
2023/09/22 08:20:45;;;;;;;4.70;4.30;;;;;;;;;;5069766;28;20263;-48
2023/09/22 08:23:11;;;;;;;4.67;3.93;;;;;;;;;;5086758;28;20168;-49
2023/09/22 08:25:38;;;;;;;5.50;4.20;;;;;;;;;;5070199;28;20187;-50
2023/09/22 08:28:04;;;;;;;5.80;4.10;;;;;;;;;;5070679;28;20204;-51
2023/09/22 08:30:31;;;;;;;4.07;3.63;;;;;;;;;;5069660;28;20213;-49
2023/09/22 08:32:58;;;;;;;5.47;4.60;;;;;;;;;;5067430;28;20263;-47
2023/09/22 08:35:24;;;;;;;4.20;3.80;;;;;;;;;;5068593;28;20394;-48
2023/09/22 08:37:50;;;;;;;5.53;3.90;;;;;;;;;;5074709;28;20177;-48
2023/09/22 08:40:17;;;;;;;5.80;3.83;;;;;;;;;;5073607;28;20245;-54
2023/09/22 08:42:51;;;;;;;4.30;3.90;;;;;;;;;;5074155;28;20251;-51
2023/09/22 08:45:17;;;;;;;8.23;3.70;;;;;;;;;;5074244;28;20177;-53
2023/09/22 08:47:45;;;;;;;4.37;3.57;;;;;;;;;;5071288;28;20176;-49
2023/09/22 08:50:14;;;;;;;3.47;3.13;;;;;;;;;;5066436;28;20192;-50
2023/09/22 08:52:42;;;;;;;3.30;2.83;;;;;;;;;;5065157;28;20181;-52
2023/09/22 08:55:11;;;;;;;5.83;3.20;;;;;;;;;;5064265;28;20179;-51
2023/09/22 08:57:38;;;;;;;4.13;3.33;;;;;;;;;;5064646;28;20184;-48
2023/09/22 09:00:11;;;;;;;4.60;3.10;;;;;;;;;;5065446;28;20188;-48
2023/09/22 09:02:38;;;;;;;8.73;3.67;;;;;;;;;;5061952;28;20435;-53
2023/09/22 09:05:17;;;;;;;4.00;3.47;;;;;;;;;;5063928;28;20165;-49
2023/09/22 09:07:43;;;;;;;3.27;2.83;;;;;;;;;;5064274;28;20203;-50
2023/09/22 09:10:10;;;;;;;3.30;3.00;;;;;;;;;;5064099;28;20202;-50
2023/09/22 09:12:44;;;;;;;3.73;2.80;;;;;;;;;;5063236;28;20639;-48
2023/09/22 09:15:11;;;;;;;2.97;2.73;;;;;;;;;;5064092;28;20297;-47
2023/09/22 09:17:37;;;;;;;3.73;3.10;;;;;;;;;;5063558;28;20312;-49
2023/09/22 09:20:05;;;;;;;5.40;3.13;;;;;;;;;;5063964;28;20161;-52
2023/09/22 09:22:33;;;;;;;4.00;2.67;;;;;;;;;;5063380;28;20195;-48
2023/09/22 09:25:02;;;;;;;3.53;2.43;;;;;;;;;;5062854;28;20205;-50
2023/09/22 09:27:28;;;;;;;5.33;2.87;;;;;;;;;;5064472;28;20420;-48
2023/09/22 09:29:55;;;;;;;2.40;2.20;;;;;;;;;;5064760;28;20575;-53
2023/09/22 09:32:27;;;;;;;3.30;2.10;;;;;;;;;;5065501;28;20157;-52
2023/09/22 09:34:54;;;;;;;8.03;2.50;;;;;;;;;;5063840;28;20353;-47
2023/09/22 09:37:20;;;;;;;4.53;1.90;;;;;;;;;;5079953;28;20510;-49
2023/09/22 09:39:52;;;;;;;2.40;1.97;;;;;;;;;;5064960;28;20171;-48
2023/09/22 09:42:19;;;;;;;2.20;1.70;;;;;;;;;;5065303;28;20251;-49
2023/09/22 09:44:49;;;;;;;3.63;2.13;;;;;;;;;;5064996;28;20231;-50
2023/09/22 09:47:22;;;;;;;4.47;2.60;;;;;;;;;;5062214;28;20179;-49
2023/09/22 09:49:50;;;;;;;4.13;1.60;;;;;;;;;;5064799;28;20223;-50
2023/09/22 09:52:17;;;;;;;2.07;1.83;;;;;;;;;;5063505;28;20556;-51
2023/09/22 09:54:47;;;;;;;3.23;2.33;;;;;;;;;;5059998;28;20266;-50
2023/09/22 09:57:13;;;;;;;3.67;2.10;;;;;;;;;;5078244;28;20458;-48
2023/09/22 09:59:40;;;;;;;3.17;2.00;;;;;;;;;;5081135;28;20164;-50
2023/09/22 10:02:07;;;;;;;2.37;1.97;;;;;;;;;;5063786;28;20282;-48
2023/09/22 10:04:33;;;;;;;3.27;2.03;;;;;;;;;;5062800;28;20593;-49
2023/09/22 10:07:00;;;;;;;2.80;1.80;;;;;;;;;;5064332;28;20353;-52
2023/09/22 10:09:26;;;;;;;4.90;2.20;;;;;;;;;;5079337;28;20553;-51
2023/09/22 10:11:52;;;;;;;2.93;2.07;;;;;;;;;;5062010;28;20178;-50
2023/09/22 10:14:37;;;;;;;2.47;1.60;;;;;;;;;;5063286;28;20164;-48
2023/09/22 10:17:03;;;;;;;2.40;1.87;;;;;;;;;;5063003;28;20164;-50
2023/09/22 10:19:41;;;;;;;2.20;1.60;;;;;;;;;;5062109;28;20168;-48
2023/09/22 10:22:13;;;;;;;2.93;1.60;;;;;;;;;;5061692;28;20276;-48
2023/09/22 10:24:40;;;;;;;1.50;1.40;;;;;;;;;;5063885;28;20180;-49
2023/09/22 10:27:07;;;;;;;5.10;1.73;;;;;;;;;;5084004;28;20483;-49
2023/09/22 10:29:37;;;;;;;4.53;1.57;;;;;;;;;;5083079;28;20219;-48
2023/09/22 10:32:23;;;;;;;2.20;1.23;;;;;;;;;;5072592;28;20176;-49
2023/09/22 10:34:53;;;;;;;3.60;1.20;;;;;;;;;;5047318;28;20181;-50
2023/09/22 10:37:23;;;;;;;2.37;1.13;;;;;;;;;;5043811;28;20220;-48
2023/09/22 10:39:59;;;;;;;2.27;1.27;;;;;;;;;;5040594;28;20238;-48
2023/09/22 10:42:27;;;;;;;2.50;1.30;;;;;;;;;;5038462;28;20475;-50
2023/09/22 10:45:00;;;;;;;3.13;1.70;;;;;;;;;;5040101;28;20310;-49
2023/09/22 10:47:27;;;;;;;1.80;1.17;;;;;;;;;;5039304;28;20632;-52
2023/09/22 10:49:53;;;;;;;2.33;1.30;;;;;;;;;;5037359;28;20277;-50
2023/09/22 10:52:19;;;;;;;2.20;1.37;;;;;;;;;;5034747;28;20181;-51
2023/09/22 10:54:47;;;;;;;2.23;1.10;;;;;;;;;;5039648;28;20204;-51
2023/09/22 10:57:23;;;;;;;1.73;1.10;;;;;;;;;;5038399;28;20279;-48
2023/09/22 10:59:49;;;;;;;5.13;1.57;;;;;;;;;;5049898;28;20208;-54
2023/09/22 11:02:21;;;;;;;4.00;1.47;;;;;;;;;;5052945;28;20178;-51
2023/09/22 11:04:48;;;;;;;3.03;1.60;;;;;;;;;;5050748;28;20208;-53
2023/09/22 11:07:30;;;;;;;6.23;1.20;;;;;;;;;;5052340;28;20504;-49
2023/09/22 11:09:56;;;;;;;3.57;1.53;;;;;;;;;;5051296;28;20201;-53
2023/09/22 11:12:22;;;;;;;4.00;1.33;;;;;;;;;;5050506;28;20177;-53
2023/09/22 11:14:49;;;;;;;2.87;1.77;;;;;;;;;;5050367;28;20738;-50
2023/09/22 11:17:15;;;;;;;3.60;1.33;;;;;;;;;;5050493;28;20204;-50
2023/09/22 11:19:54;;;;;;;5.33;1.70;;;;;;;;;;5048553;28;20176;-51
2023/09/22 11:22:23;;;;;;;3.53;1.30;;;;;;;;;;5050093;28;20192;-50
2023/09/22 11:24:49;;;;;;;5.47;2.00;;;;;;;;;;5050550;28;20166;-50
2023/09/22 11:27:15;;;;;;;3.30;1.50;;;;;;;;;;5051959;28;20174;-50
2023/09/22 11:29:41;;;;;;;4.33;1.40;;;;;;;;;;5050713;28;20212;-47
2023/09/22 11:32:08;;;;;;;2.53;1.37;;;;;;;;;;5051337;28;20170;-51
2023/09/22 11:34:47;;;;;;;3.23;1.47;;;;;;;;;;5051684;28;20347;-52
2023/09/22 11:37:13;;;;;;;4.23;1.77;;;;;;;;;;5051998;28;20177;-52
2023/09/22 11:39:39;;;;;;;1.90;1.30;;;;;;;;;;5051104;28;20188;-50
2023/09/22 11:42:05;;;;;;;2.03;1.60;;;;;;;;;;5051417;28;20174;-52
2023/09/22 11:44:31;;;;;;;3.33;1.70;;;;;;;;;;5051285;28;20177;-52
2023/09/22 11:46:57;;;;;;;3.80;2.20;;;;;;;;;;5051441;28;20366;-52
2023/09/22 11:49:34;;;;;;;2.70;1.50;;;;;;;;;;5051936;28;20201;-49
2023/09/22 11:52:01;;;;;;;2.63;1.57;;;;;;;;;;5050315;28;20238;-54
2023/09/22 11:54:29;;;;;;;4.37;1.80;;;;;;;;;;5050449;28;20197;-48
2023/09/22 11:56:57;;;;;;;5.10;2.17;;;;;;;;;;5052485;28;20177;-53
2023/09/22 11:59:40;;;;;;;2.73;2.10;;;;;;;;;;5052356;28;20180;-52
2023/09/22 12:02:06;;;;;;;1.83;1.27;;;;;;;;;;5051484;28;20174;-49
2023/09/22 12:04:34;;;;;;;4.33;1.77;;;;;;;;;;5052447;28;20180;-51
2023/09/22 12:07:01;;;;;;;4.93;2.20;;;;;;;;;;5052410;28;20197;-48
2023/09/22 12:09:27;;;;;;;4.07;2.30;;;;;;;;;;5050939;28;20205;-50
2023/09/22 12:11:55;;;;;;;3.20;2.00;;;;;;;;;;5051389;28;20163;-48
2023/09/22 12:14:23;;;;;;;4.50;1.70;;;;;;;;;;5050380;28;20239;-50
2023/09/22 12:16:51;;;;;;;3.37;1.80;;;;;;;;;;5048354;28;20180;-53
2023/09/22 12:19:19;;;;;;;2.77;1.40;;;;;;;;;;5047282;28;20177;-54
2023/09/22 12:21:46;;;;;;;2.87;1.57;;;;;;;;;;5047121;28;20169;-51
2023/09/22 12:24:13;;;;;;;4.90;1.50;;;;;;;;;;5046394;28;20212;-48
2023/09/22 12:26:40;;;;;;;4.70;1.77;;;;;;;;;;5047917;28;20185;-50
2023/09/22 12:29:06;;;;;;;4.17;1.43;;;;;;;;;;5049262;28;20251;-51
2023/09/22 12:31:34;;;;;;;3.30;1.40;;;;;;;;;;5049884;28;20533;-48
2023/09/22 12:34:01;;;;;;;2.13;1.47;;;;;;;;;;5049788;28;20608;-50
2023/09/22 12:36:29;;;;;;;2.30;1.30;;;;;;;;;;5051328;28;20169;-51
2023/09/22 12:38:55;;;;;;;3.57;1.70;;;;;;;;;;5051484;28;20287;-53
2023/09/22 12:41:21;;;;;;;5.47;1.87;;;;;;;;;;5052149;28;20733;-50
2023/09/22 12:43:47;;;;;;;5.60;2.10;;;;;;;;;;5053274;28;20180;-49
2023/09/22 12:46:14;;;;;;;1.47;1.30;;;;;;;;;;5026838;28;20201;-48
2023/09/22 12:48:40;;;;;;;5.33;1.80;;;;;;;;;;5006307;28;20243;-52
2023/09/22 12:51:07;;;;;;;3.17;1.40;;;;;;;;;;5001900;28;20195;-52
2023/09/22 12:53:34;;;;;;;3.13;1.20;;;;;;;;;;5002943;28;20178;-47
2023/09/22 12:56:01;;;;;;;6.03;1.90;;;;;;;;;;5011093;28;20169;-48
2023/09/22 12:58:28;;;;;;;4.27;1.80;;;;;;;;;;5048368;28;20188;-53
2023/09/22 13:00:57;;;;;;;2.60;1.60;;;;;;;;;;5048731;28;20235;-52
2023/09/22 13:03:23;;;;;;;1.27;1.17;;;;;;;;;;5046845;28;20182;-48
2023/09/22 13:05:50;;;;;;;4.30;1.43;;;;;;;;;;5048279;28;20239;-50
2023/09/22 13:08:17;;;;;;;4.17;1.20;;;;;;;;;;5049147;28;20209;-53
2023/09/22 13:10:44;;;;;;;2.03;1.47;;;;;;;;;;5048120;28;20176;-52
2023/09/22 13:13:12;;;;;;;1.50;1.10;;;;;;;;;;5049409;28;20170;-51
2023/09/22 13:15:44;;;;;;;2.27;1.40;;;;;;;;;;5049804;28;20199;-51
2023/09/22 13:18:12;;;;;;;1.97;1.30;;;;;;;;;;5051788;28;20680;-48
2023/09/22 13:20:40;;;;;;;2.53;1.17;;;;;;;;;;5050887;28;20177;-52
2023/09/22 13:23:06;;;;;;;2.80;1.20;;;;;;;;;;5049206;28;20634;-50
2023/09/22 13:25:38;;;;;;;2.27;1.40;;;;;;;;;;5049021;28;20181;-53
2023/09/22 13:28:05;;;;;;;1.97;1.00;;;;;;;;;;5048397;28;20197;-50
2023/09/22 13:30:34;;;;;;;1.70;0.90;;;;;;;;;;5048638;28;20165;-51
2023/09/22 13:33:01;;;;;;;1.20;1.10;;;;;;;;;;5049805;28;20232;-53
2023/09/22 13:35:28;;;;;;;1.07;0.90;;;;;;;;;;5050905;28;20173;-51
2023/09/22 13:37:54;;;;;;;1.73;1.00;;;;;;;;;;5051521;28;20264;-51
2023/09/22 13:40:21;;;;;;;2.20;0.90;;;;;;;;;;5050864;28;20165;-50
2023/09/22 13:42:47;;;;;;;1.13;0.73;;;;;;;;;;5050428;28;20293;-49
2023/09/22 13:45:13;;;;;;;2.20;0.70;;;;;;;;;;5050475;28;20557;-50
2023/09/22 13:47:39;;;;;;;1.00;0.90;;;;;;;;;;5051386;28;20170;-50
2023/09/22 13:50:07;;;;;;;1.63;0.90;;;;;;;;;;5048872;28;20201;-51
2023/09/22 13:52:34;;;;;;;2.70;0.80;;;;;;;;;;5049653;28;20220;-51
2023/09/22 13:55:04;;;;;;;1.47;0.87;;;;;;;;;;5048069;28;20191;-49
2023/09/22 13:57:33;;;;;;;2.03;1.00;;;;;;;;;;5083365;28;20187;-52
2023/09/22 13:59:59;;;;;;;1.40;0.97;;;;;;;;;;5087887;28;20680;-48
2023/09/22 14:02:25;;;;;;;1.47;1.10;;;;;;;;;;5088449;28;20207;-49
2023/09/22 14:04:52;;;;;;;2.43;0.90;;;;;;;;;;5089158;28;20211;-52
2023/09/22 14:07:18;;;;;;;1.50;0.97;;;;;;;;;;5088921;28;20164;-52
2023/09/22 14:09:53;;;;;;;1.37;0.93;;;;;;;;;;5089090;28;20206;-48
2023/09/22 14:12:19;;;;;;;1.70;1.07;;;;;;;;;;5089350;28;20174;-51
2023/09/22 14:14:46;;;;;;;4.27;1.20;;;;;;;;;;5088667;28;20203;-53
2023/09/22 14:17:12;;;;;;;1.10;0.80;;;;;;;;;;5087780;28;20724;-48
2023/09/22 14:19:38;;;;;;;2.27;1.17;;;;;;;;;;5089291;28;20786;-54
2023/09/22 14:22:04;;;;;;;2.13;0.70;;;;;;;;;;5089931;28;20168;-51
2023/09/22 14:24:30;;;;;;;1.97;0.90;;;;;;;;;;5088897;28;20172;-55
2023/09/22 14:26:57;;;;;;;1.50;0.70;;;;;;;;;;5089526;28;20463;-48
2023/09/22 14:29:23;;;;;;;2.40;1.00;;;;;;;;;;5089919;28;20214;-52
2023/09/22 14:31:49;;;;;;;1.20;0.80;;;;;;;;;;5089106;28;20168;-48
2023/09/22 14:34:15;;;;;;;1.97;1.03;;;;;;;;;;5109103;28;20686;-50
2023/09/22 14:36:41;;;;;;;1.97;1.17;;;;;;;;;;5112559;28;20736;-52
2023/09/22 14:39:08;;;;;;;1.70;0.77;;;;;;;;;;5096564;28;20643;-53
2023/09/22 14:41:34;;;;;;;2.37;1.10;;;;;;;;;;5095233;28;20182;-51